createdAt,value
2022-10-11T00:01:42.697Z,102714.47
2022-10-11T00:04:09.242Z,102715.53
2022-10-11T00:06:37.907Z,102711.28
2022-10-11T00:09:05.588Z,102717.53
2022-10-11T00:11:32.771Z,102712.25
2022-10-11T00:13:59.317Z,102714.97
2022-10-11T00:16:25.899Z,102721.22
2022-10-11T00:18:52.339Z,102718.66
2022-10-11T00:21:20.566Z,102714.47
2022-10-11T00:23:47.919Z,102717.06
2022-10-11T00:26:14.767Z,102725.94
2022-10-11T00:28:41.724Z,102722.63
2022-10-11T00:31:11.220Z,102714.94
2022-10-11T00:33:37.824Z,102728.88
2022-10-11T00:36:04.725Z,102701.13
2022-10-11T00:38:32.086Z,102720.06
2022-10-11T00:40:59.896Z,102695.03
2022-10-11T00:43:29.594Z,102736.81
2022-10-11T00:45:55.898Z,102742.88
2022-10-11T00:48:50.730Z,102741.03
2022-10-11T00:51:23.744Z,102742.66
2022-10-11T00:53:51.688Z,102745.16
2022-10-11T00:56:26.115Z,102744.06
2022-10-11T00:58:53.771Z,102745.66
2022-10-11T01:01:20.498Z,102715.09
2022-10-11T01:03:47.231Z,102715.03
2022-10-11T01:06:13.675Z,102742.94
2022-10-11T01:08:40.533Z,102723.13
2022-10-11T01:11:12.211Z,102751.75
2022-10-11T01:13:56.318Z,102752.63
2022-10-11T01:16:36.039Z,102741.06
2022-10-11T01:19:02.486Z,102714.22
2022-10-11T01:21:57.699Z,102733.34
2022-10-11T01:25:09.256Z,102747.59
2022-10-11T01:27:53.885Z,102746.94
2022-10-11T01:30:21.797Z,102755.66
2022-10-11T01:32:57.065Z,102759.88
2022-10-11T01:35:31.037Z,102756.34
2022-10-11T01:38:07.684Z,102756.16
2022-10-11T01:40:39.779Z,102759.75
2022-10-11T01:43:06.608Z,102758.09
2022-10-11T01:45:34.647Z,102771.13
2022-10-11T01:48:13.165Z,102767.72
2022-10-11T01:50:53.322Z,102772.84
2022-10-11T01:53:39.253Z,102777.22
2022-10-11T01:56:12.408Z,102777.16
2022-10-11T01:58:44.817Z,102776.25
2022-10-11T02:01:49.088Z,102772.72
2022-10-11T02:04:27.209Z,102761.38
2022-10-11T02:07:11.541Z,102772.78
2022-10-11T02:09:59.540Z,102775.47
2022-10-11T02:12:37.731Z,102770.31
2022-10-11T02:15:09.271Z,102778.19
2022-10-11T02:17:47.867Z,102765.00
2022-10-11T02:20:21.132Z,102763.47
2022-10-11T02:22:51.563Z,102774.84
2022-10-11T02:25:24.179Z,102767.03
2022-10-11T02:27:54.229Z,102740.81
2022-10-11T02:30:20.804Z,102773.50
2022-10-11T02:32:50.147Z,102766.34
2022-10-11T02:35:16.999Z,102767.25
2022-10-11T02:37:53.093Z,102776.13
2022-10-11T02:40:35.949Z,102769.97
2022-10-11T02:43:13.430Z,102776.59
2022-10-11T02:45:44.724Z,102779.00
2022-10-11T02:48:12.551Z,102771.75
2022-10-11T02:50:39.780Z,102775.06
2022-10-11T02:53:06.744Z,102774.09
2022-10-11T02:55:33.400Z,102777.69
2022-10-11T02:57:59.833Z,102779.56
2022-10-11T03:00:26.428Z,102777.78
2022-10-11T03:02:52.882Z,102781.28
2022-10-11T03:05:19.813Z,102783.09
2022-10-11T03:07:46.314Z,102786.53
2022-10-11T03:10:12.958Z,102776.03
2022-10-11T03:12:39.465Z,102779.50
2022-10-11T03:15:06.429Z,102766.47
2022-10-11T03:17:37.322Z,102775.25
2022-10-11T03:20:05.998Z,102774.38
2022-10-11T03:22:32.623Z,102764.19
2022-10-11T03:25:03.635Z,102776.56
2022-10-11T03:27:31.780Z,102781.06
2022-10-11T03:29:58.696Z,102780.38
2022-10-11T03:32:25.253Z,102776.88
2022-10-11T03:34:51.861Z,102779.44
2022-10-11T03:37:18.888Z,102765.19
2022-10-11T03:39:45.843Z,102787.16
2022-10-11T03:42:13.503Z,102788.16
2022-10-11T03:44:41.542Z,102786.50
2022-10-11T03:47:08.563Z,102789.91
2022-10-11T03:49:37.732Z,102796.09
2022-10-11T03:54:48.542Z,102795.69
2022-10-11T03:57:15.246Z,102785.34
2022-10-11T03:59:41.717Z,102793.44
2022-10-11T04:02:08.271Z,102801.69
2022-10-11T04:04:34.877Z,102797.47
2022-10-11T04:07:01.334Z,102802.63
2022-10-11T04:09:27.870Z,102806.78
2022-10-11T04:11:54.304Z,102811.09
2022-10-11T04:14:20.743Z,102815.34
2022-10-11T04:16:47.215Z,102815.28
2022-10-11T04:19:14.248Z,102817.16
2022-10-11T04:21:40.678Z,102821.53
2022-10-11T04:24:07.359Z,102810.31
2022-10-11T04:26:33.852Z,102825.94
2022-10-11T04:29:00.287Z,102828.63
2022-10-11T04:31:26.716Z,102825.13
2022-10-11T04:33:54.575Z,102825.09
2022-10-11T04:36:21.017Z,102814.47
2022-10-11T04:38:47.509Z,102826.56
2022-10-11T04:41:14.939Z,102819.53
2022-10-11T04:43:41.357Z,102829.09
2022-10-11T04:46:09.046Z,102824.72
2022-10-11T04:48:36.146Z,102833.59
2022-10-11T04:51:02.670Z,102831.69
2022-10-11T04:53:29.124Z,102835.97
2022-10-11T04:56:01.252Z,102833.28
2022-10-11T04:58:29.334Z,102831.59
2022-10-11T05:00:56.125Z,102835.97
2022-10-11T05:03:22.738Z,102823.75
2022-10-11T05:05:49.906Z,102833.47
2022-10-11T05:08:16.481Z,102825.75
2022-10-11T05:10:43.147Z,102833.69
2022-10-11T05:13:09.622Z,102842.34
2022-10-11T05:15:36.055Z,102841.44
2022-10-11T05:18:02.703Z,102850.31
2022-10-11T05:20:29.185Z,102834.81
2022-10-11T05:22:55.715Z,102847.78
2022-10-11T05:25:22.302Z,102839.91
2022-10-11T05:27:48.822Z,102851.22
2022-10-11T05:30:15.550Z,102860.78
2022-10-11T05:32:42.080Z,102852.09
2022-10-11T05:35:08.926Z,102844.09
2022-10-11T05:37:35.457Z,102861.63
2022-10-11T05:40:01.859Z,102861.53
2022-10-11T05:42:28.291Z,102862.47
2022-10-11T05:44:54.778Z,102862.31
2022-10-11T05:47:21.218Z,102864.91
2022-10-11T05:49:47.644Z,102859.66
2022-10-11T05:52:19.819Z,102853.50
2022-10-11T05:54:46.248Z,102869.25
2022-10-11T05:57:12.688Z,102864.06
2022-10-11T05:59:39.159Z,102866.69
2022-10-11T06:02:06.359Z,102868.38
2022-10-11T06:04:37.126Z,102871.88
2022-10-11T06:07:03.853Z,102872.94
2022-10-11T06:09:30.787Z,102873.88
2022-10-11T06:11:57.408Z,102874.84
2022-10-11T06:14:23.993Z,102870.47
2022-10-11T06:16:50.476Z,102884.50
2022-10-11T06:19:16.960Z,102877.53
2022-10-11T06:21:45.184Z,102885.41
2022-10-11T06:24:12.289Z,102888.97
2022-10-11T06:26:38.819Z,102894.38
2022-10-11T06:29:05.906Z,102865.75
2022-10-11T06:31:32.936Z,102904.03
2022-10-11T06:33:59.569Z,102902.31
2022-10-11T06:36:26.679Z,102902.31
2022-10-11T06:38:54.985Z,102880.69
2022-10-11T06:41:23.122Z,102911.16
2022-10-11T06:43:49.961Z,102916.44
2022-10-11T06:46:18.675Z,102905.06
2022-10-11T06:48:46.649Z,102914.72
2022-10-11T06:51:15.844Z,102918.22
2022-10-11T06:53:42.660Z,102911.25
2022-10-11T06:56:11.218Z,102928.72
2022-10-11T06:58:38.729Z,102938.41
2022-10-11T07:01:12.937Z,102927.94
2022-10-11T07:03:39.986Z,102904.50
2022-10-11T07:06:10.009Z,102923.72
2022-10-11T07:08:37.685Z,102937.72
2022-10-11T07:11:25.338Z,102943.63
2022-10-11T07:13:56.685Z,102940.13
2022-10-11T07:16:24.158Z,102945.31
2022-10-11T07:19:00.250Z,102949.63
2022-10-11T07:21:28.656Z,102946.03
2022-10-11T07:23:55.251Z,102956.38
2022-10-11T07:26:21.708Z,102950.06
2022-10-11T07:28:48.443Z,102953.31
2022-10-11T07:31:18.826Z,102958.34
2022-10-11T07:33:45.716Z,102952.88
2022-10-11T07:36:13.052Z,102960.59
2022-10-11T07:38:41.438Z,102955.22
2022-10-11T07:41:08.675Z,102955.19
2022-10-11T07:43:36.473Z,102955.97
2022-10-11T07:46:04.931Z,102957.56
2022-10-11T07:48:33.884Z,102949.72
2022-10-11T07:51:11.968Z,102947.88
2022-10-11T07:53:40.205Z,102953.00
2022-10-11T07:56:07.884Z,102953.75
2022-10-11T07:58:35.090Z,102957.91
2022-10-11T08:01:01.606Z,102965.59
2022-10-11T08:03:28.140Z,102961.94
2022-10-11T08:05:54.625Z,102960.84
2022-10-11T08:08:21.399Z,102973.00
2022-10-11T08:10:50.437Z,102965.97
2022-10-11T08:13:17.533Z,102971.97
2022-10-11T08:15:44.079Z,102977.78
2022-10-11T08:18:10.679Z,102957.72
2022-10-11T08:20:39.673Z,102971.38
2022-10-11T08:23:06.763Z,102988.59
2022-10-11T08:25:41.215Z,102978.66
2022-10-11T08:28:08.045Z,102993.06
2022-10-11T08:30:34.654Z,102991.88
2022-10-11T08:33:05.005Z,102989.13
2022-10-11T08:35:34.138Z,102987.16
2022-10-11T08:38:00.577Z,102987.88
2022-10-11T08:40:29.439Z,102985.34
2022-10-11T08:43:15.425Z,102977.56
2022-10-11T08:45:50.868Z,102987.94
2022-10-11T08:48:21.430Z,102993.91
2022-10-11T08:50:54.278Z,102973.00
2022-10-11T08:53:39.465Z,103000.81
2022-10-11T08:56:07.120Z,102988.53
2022-10-11T08:58:51.600Z,102987.56
2022-10-11T09:01:24.937Z,102995.94
2022-10-11T09:03:52.630Z,102974.63
2022-10-11T09:07:04.702Z,103009.19
2022-10-11T09:09:34.139Z,103010.88
2022-10-11T09:12:23.070Z,102999.66
2022-10-11T09:15:17.545Z,103023.09
2022-10-11T09:18:19.355Z,103015.06
2022-10-11T09:21:11.709Z,103015.03
2022-10-11T09:23:48.616Z,103003.69
2022-10-11T09:26:25.530Z,103018.25
2022-10-11T09:29:05.709Z,103024.97
2022-10-11T09:31:32.825Z,103028.41
2022-10-11T09:34:10.107Z,103014.34
2022-10-11T09:37:11.944Z,103027.16
2022-10-11T09:39:45.168Z,103018.69
2022-10-11T09:42:12.355Z,103020.97
2022-10-11T09:44:41.190Z,103025.75
2022-10-11T09:47:14.744Z,103039.50
2022-10-11T09:49:47.235Z,103032.25
2022-10-11T09:52:20.681Z,103026.97
2022-10-11T09:54:50.773Z,103026.72
2022-10-11T09:57:29.632Z,103027.22
2022-10-11T10:00:24.725Z,103029.09
2022-10-11T10:02:55.438Z,103023.25
2022-10-11T10:05:25.028Z,103027.16
2022-10-11T10:08:04.123Z,103029.34
2022-10-11T10:10:38.508Z,103022.69
2022-10-11T10:13:17.758Z,103024.09
2022-10-11T10:15:48.075Z,103022.25
2022-10-11T10:18:24.642Z,103017.78
2022-10-11T10:20:54.286Z,103023.13
2022-10-11T10:23:27.895Z,103025.03
2022-10-11T10:26:20.285Z,103020.75
2022-10-11T10:28:59.076Z,103015.25
2022-10-11T10:31:49.167Z,103016.00
2022-10-11T10:34:29.843Z,103021.88
2022-10-11T10:37:03.554Z,103002.38
2022-10-11T10:39:40.962Z,103001.25
2022-10-11T10:42:15.521Z,103019.00
2022-10-11T10:44:43.821Z,103015.16
2022-10-11T10:47:28.918Z,103007.09
2022-10-11T10:50:17.177Z,102980.88
2022-10-11T10:53:17.429Z,103016.47
2022-10-11T10:55:52.418Z,103013.53
2022-10-11T10:59:14.395Z,103011.66
2022-10-11T11:02:35.468Z,103007.28
2022-10-11T11:05:28.891Z,102992.09
2022-10-11T11:08:01.133Z,103005.00
2022-10-11T11:10:38.935Z,102971.66
2022-10-11T11:13:47.419Z,102977.38
2022-10-11T11:16:24.771Z,102989.72
2022-10-11T11:18:57.130Z,102988.72
2022-10-11T11:21:29.735Z,102993.81
2022-10-11T11:24:14.627Z,102987.81
2022-10-11T11:26:49.843Z,102984.66
2022-10-11T11:29:45.189Z,102986.47
2022-10-11T11:32:24.697Z,102986.91
2022-10-11T11:35:01.126Z,102979.97
2022-10-11T11:37:36.096Z,102983.59
2022-10-11T11:40:20.013Z,102995.63
2022-10-11T11:42:51.393Z,102990.94
2022-10-11T11:45:20.078Z,102994.75
2022-10-11T11:47:54.913Z,102978.09
2022-10-11T11:50:23.767Z,102979.97
2022-10-11T11:53:15.274Z,102984.75
2022-10-11T11:55:52.722Z,102969.47
2022-10-11T11:58:43.897Z,102975.59
2022-10-11T12:01:30.274Z,102963.78
2022-10-11T12:04:04.958Z,102967.38
2022-10-11T12:06:37.866Z,102973.41
2022-10-11T12:09:18.982Z,102983.88
2022-10-11T12:11:58.601Z,102975.16
2022-10-11T12:14:27.319Z,102966.94
2022-10-11T12:17:11.291Z,102965.78
2022-10-11T12:19:40.700Z,102960.16
2022-10-11T12:22:53.602Z,102966.00
2022-10-11T12:25:23.082Z,102961.03
2022-10-11T12:27:52.329Z,102958.00
2022-10-11T12:30:44.197Z,102956.19
2022-10-11T12:33:30.855Z,102947.34
2022-10-11T12:36:07.492Z,102954.75
2022-10-11T12:38:40.196Z,102936.66
2022-10-11T12:41:09.759Z,102946.66
2022-10-11T12:43:48.662Z,102953.88
2022-10-11T12:46:31.063Z,102942.94
2022-10-11T12:49:25.107Z,102941.22
2022-10-11T12:52:17.731Z,102947.13
2022-10-11T12:55:23.850Z,102941.22
2022-10-11T12:58:19.143Z,102949.44
2022-10-11T13:00:52.207Z,102954.13
2022-10-11T13:03:49.399Z,102943.66
2022-10-11T13:06:28.891Z,102949.56
2022-10-11T13:09:15.593Z,102941.94
2022-10-11T13:11:51.374Z,102936.75
2022-10-11T13:14:21.915Z,102936.31
2022-10-11T13:16:50.801Z,102945.31
2022-10-11T13:19:22.666Z,102922.16
2022-10-11T13:21:55.955Z,102937.28
2022-10-11T13:24:23.318Z,102927.31
2022-10-11T13:26:52.668Z,102921.91
2022-10-11T13:29:33.797Z,102910.72
2022-10-11T13:32:04.552Z,102922.44
2022-10-11T13:34:35.572Z,102929.72
2022-10-11T13:37:02.307Z,102916.63
2022-10-11T13:39:34.087Z,102916.41
2022-10-11T13:42:03.571Z,102910.63
2022-10-11T13:44:33.337Z,102921.56
2022-10-11T13:47:00.268Z,102916.00
2022-10-11T13:49:38.549Z,102922.19
2022-10-11T13:52:27.364Z,102920.69
2022-10-11T13:54:55.200Z,102911.41
2022-10-11T13:57:24.650Z,102911.91
2022-10-11T13:59:51.228Z,102927.16
2022-10-11T14:02:22.343Z,102910.59
2022-10-11T14:04:50.560Z,102895.03
2022-10-11T14:07:31.600Z,102901.38
2022-10-11T14:09:58.126Z,102909.16
2022-10-11T14:12:30.632Z,102919.97
2022-10-11T14:15:00.927Z,102907.88
2022-10-11T14:17:45.179Z,102894.19
2022-10-11T14:20:11.996Z,102909.59
2022-10-11T14:22:39.084Z,102917.81
2022-10-11T14:25:05.947Z,102921.91
2022-10-11T14:27:32.647Z,102905.28
2022-10-11T14:30:24.960Z,102905.69
2022-10-11T14:32:52.043Z,102886.84
2022-10-11T14:35:28.239Z,102918.38
2022-10-11T14:37:55.085Z,102914.19
2022-10-11T14:40:26.295Z,102922.06
2022-10-11T14:42:53.479Z,102896.06
2022-10-11T14:45:21.330Z,102901.16
2022-10-11T14:47:49.952Z,102905.28
2022-10-11T14:50:37.538Z,102892.44
2022-10-11T14:53:05.782Z,102876.69
2022-10-11T14:55:36.598Z,102892.38
2022-10-11T14:58:04.026Z,102879.47
2022-10-11T15:00:31.130Z,102877.88
2022-10-11T15:02:57.940Z,102886.56
2022-10-11T15:05:31.116Z,102902.03
2022-10-11T15:08:00.420Z,102871.22
2022-10-11T15:10:30.768Z,102888.47
2022-10-11T15:12:57.875Z,102893.53
2022-10-11T15:15:26.424Z,102892.66
2022-10-11T15:17:57.981Z,102889.13
2022-10-11T15:20:33.736Z,102889.13
2022-10-11T15:23:01.319Z,102890.84
2022-10-11T15:25:29.321Z,102891.78
2022-10-11T15:27:56.279Z,102893.81
2022-10-11T15:30:27.355Z,102893.88
2022-10-11T15:32:54.388Z,102892.31
2022-10-11T15:35:22.889Z,102887.06
2022-10-11T15:37:53.436Z,102887.41
2022-10-11T15:40:33.350Z,102892.94
2022-10-11T15:42:59.988Z,102894.00
2022-10-11T15:45:30.109Z,102882.19
2022-10-11T15:47:57.134Z,102894.66
2022-10-11T15:50:41.421Z,102888.00
2022-10-11T15:53:11.802Z,102880.44
2022-10-11T15:55:51.290Z,102888.44
2022-10-11T15:58:26.675Z,102853.09
2022-10-11T16:00:55.724Z,102881.59
2022-10-11T16:03:24.832Z,102882.69
2022-10-11T16:05:52.699Z,102884.22
2022-10-11T16:08:19.992Z,102883.50
2022-10-11T16:10:46.566Z,102881.81
2022-10-11T16:13:13.106Z,102885.63
2022-10-11T16:15:41.849Z,102873.72
2022-10-11T16:18:10.435Z,102889.56
2022-10-11T16:20:41.716Z,102858.69
2022-10-11T16:23:08.470Z,102859.69
2022-10-11T16:25:36.012Z,102853.88
2022-10-11T16:28:04.401Z,102848.56
2022-10-11T16:30:31.167Z,102869.59
2022-10-11T16:32:57.792Z,102856.75
2022-10-11T16:35:26.924Z,102888.06
2022-10-11T16:37:55.579Z,102884.75
2022-10-11T16:40:22.123Z,102891.78
2022-10-11T16:42:48.815Z,102880.47
2022-10-11T16:45:18.533Z,102894.19
2022-10-11T16:47:45.246Z,102881.66
2022-10-11T16:50:13.152Z,102896.50
2022-10-11T16:52:39.958Z,102876.53
2022-10-11T16:55:07.001Z,102880.84
2022-10-11T16:57:33.717Z,102885.44
2022-10-11T17:00:00.355Z,102866.56
2022-10-11T17:02:32.138Z,102890.75
2022-10-11T17:04:59.672Z,102874.66
2022-10-11T17:07:28.644Z,102881.78
2022-10-11T17:09:55.540Z,102870.66
2022-10-11T17:12:24.245Z,102890.69
2022-10-11T17:14:51.289Z,102870.91
2022-10-11T17:17:18.893Z,102905.19
2022-10-11T17:19:47.600Z,102881.00
2022-10-11T17:22:17.193Z,102895.69
2022-10-11T17:24:44.671Z,102889.97
2022-10-11T17:27:11.551Z,102900.94
2022-10-11T17:29:41.178Z,102885.34
2022-10-11T17:32:10.737Z,102883.66
2022-10-11T17:34:40.080Z,102895.16
2022-10-11T17:37:08.868Z,102879.63
2022-10-11T17:39:35.510Z,102878.28
2022-10-11T17:42:07.430Z,102884.59
2022-10-11T17:44:35.356Z,102883.06
2022-10-11T17:47:03.402Z,102900.34
2022-10-11T17:49:30.337Z,102903.09
2022-10-11T17:51:56.997Z,102904.09
2022-10-11T17:54:24.605Z,102877.41
2022-10-11T17:56:51.194Z,102899.13
2022-10-11T17:59:21.405Z,102887.16
2022-10-11T18:01:50.252Z,102894.09
2022-10-11T18:04:26.584Z,102905.56
2022-10-11T18:06:53.831Z,102875.53
2022-10-11T18:09:24.659Z,102892.91
2022-10-11T18:11:51.494Z,102898.31
2022-10-11T18:14:19.483Z,102889.72
2022-10-11T18:16:47.149Z,102884.63
2022-10-11T18:19:14.459Z,102896.09
2022-10-11T18:21:44.043Z,102895.38
2022-10-11T18:24:16.375Z,102892.94
2022-10-11T18:26:46.818Z,102904.50
2022-10-11T18:29:14.484Z,102902.06
2022-10-11T18:31:41.639Z,102872.63
2022-10-11T18:34:10.894Z,102900.59
2022-10-11T18:36:38.294Z,102900.66
2022-10-11T18:39:07.740Z,102883.38
2022-10-11T18:41:35.548Z,102876.59
2022-10-11T18:44:07.771Z,102869.66
2022-10-11T18:46:35.978Z,102877.66
2022-10-11T18:49:02.559Z,102897.81
2022-10-11T18:51:30.282Z,102896.16
2022-10-11T18:53:59.999Z,102890.81
2022-10-11T18:56:28.332Z,102894.19
2022-10-11T18:58:56.538Z,102884.19
2022-10-11T19:01:24.399Z,102900.41
2022-10-11T19:03:53.445Z,102891.03
2022-10-11T19:06:26.830Z,102899.09
2022-10-11T19:08:59.047Z,102892.34
2022-10-11T19:11:25.620Z,102894.97
2022-10-11T19:13:57.533Z,102898.50
2022-10-11T19:16:24.394Z,102876.81
2022-10-11T19:18:52.056Z,102851.69
2022-10-11T19:21:20.448Z,102843.88
2022-10-11T19:23:48.994Z,102896.06
2022-10-11T19:26:19.833Z,102877.75
2022-10-11T19:28:49.800Z,102894.31
2022-10-11T19:31:17.391Z,102885.81
2022-10-11T19:33:45.363Z,102895.44
2022-10-11T19:36:13.961Z,102886.00
2022-10-11T19:38:43.994Z,102889.53
2022-10-11T19:41:11.092Z,102893.16
2022-10-11T19:43:37.535Z,102882.66
2022-10-11T19:46:06.199Z,102874.03
2022-10-11T19:48:35.418Z,102887.19
2022-10-11T19:51:09.596Z,102883.91
2022-10-11T19:53:36.235Z,102884.88
2022-10-11T19:56:04.969Z,102871.91
2022-10-11T19:58:31.546Z,102886.66
2022-10-11T20:01:03.115Z,102884.13
2022-10-11T20:03:30.091Z,102878.84
2022-10-11T20:06:00.527Z,102876.19
2022-10-11T20:08:31.155Z,102883.25
2022-10-11T20:10:59.228Z,102887.66
2022-10-11T20:13:29.982Z,102881.59
2022-10-11T20:16:05.620Z,102884.28
2022-10-11T20:18:32.716Z,102881.75
2022-10-11T20:21:05.200Z,102870.47
2022-10-11T20:23:32.538Z,102879.16
2022-10-11T20:26:01.336Z,102889.75
2022-10-11T20:28:28.378Z,102890.66
2022-10-11T20:30:55.055Z,102895.09
2022-10-11T20:33:21.613Z,102889.00
2022-10-11T20:36:02.787Z,102890.69
2022-10-11T20:38:32.410Z,102895.09
2022-10-11T20:40:58.948Z,102887.41
2022-10-11T20:43:25.969Z,102883.00
2022-10-11T20:46:14.048Z,102861.19
2022-10-11T20:48:41.598Z,102889.91
2022-10-11T20:51:10.316Z,102887.97
2022-10-11T20:53:38.248Z,102887.03
2022-10-11T20:56:09.604Z,102871.19
2022-10-11T20:58:36.149Z,102885.19
2022-10-11T21:01:16.895Z,102879.91
2022-10-11T21:03:43.949Z,102886.84
2022-10-11T21:06:11.297Z,102871.84
2022-10-11T21:08:39.160Z,102879.69
2022-10-11T21:11:07.025Z,102881.56
2022-10-11T21:13:33.567Z,102886.75
2022-10-11T21:16:05.242Z,102869.22
2022-10-11T21:18:31.693Z,102876.16
2022-10-11T21:21:06.490Z,102884.78
2022-10-11T21:23:33.474Z,102876.88
2022-10-11T21:26:04.954Z,102878.69
2022-10-11T21:28:31.509Z,102873.34
2022-10-11T21:31:07.010Z,102869.03
2022-10-11T21:33:34.931Z,102882.03
2022-10-11T21:36:06.297Z,102880.25
2022-10-11T21:38:33.223Z,102869.75
2022-10-11T21:41:06.356Z,102847.09
2022-10-11T21:43:35.131Z,102882.75
2022-10-11T21:49:15.996Z,102861.06
2022-10-11T21:51:42.627Z,102883.66
2022-10-11T21:54:09.648Z,102884.41
2022-10-11T21:56:36.118Z,102884.41
2022-10-11T21:59:05.391Z,102881.84
2022-10-11T22:01:36.596Z,102862.53
2022-10-11T22:04:07.562Z,102886.78
2022-10-11T22:06:34.580Z,102883.19
2022-10-11T22:09:01.152Z,102887.66
2022-10-11T22:11:27.751Z,102879.81
2022-10-11T22:13:54.183Z,102881.56
2022-10-11T22:16:20.750Z,102880.84
2022-10-11T22:18:47.248Z,102872.16
2022-10-11T22:21:19.585Z,102861.78
2022-10-11T22:23:51.187Z,102875.75
2022-10-11T22:26:21.069Z,102872.31
2022-10-11T22:28:48.090Z,102841.06
2022-10-11T22:31:18.944Z,102879.47
2022-10-11T22:36:18.903Z,102879.66
2022-10-11T22:38:45.448Z,102883.19
2022-10-11T22:41:12.574Z,102875.41
2022-10-11T22:43:39.272Z,102864.94
2022-10-11T22:46:06.278Z,102872.91
2022-10-11T22:48:32.820Z,102868.72
2022-10-11T22:50:59.476Z,102874.88
2022-10-11T22:53:25.956Z,102868.88
2022-10-11T22:55:52.437Z,102870.63
2022-10-11T22:58:19.120Z,102867.19
2022-10-11T23:00:45.585Z,102866.31
2022-10-11T23:03:13.610Z,102855.03
2022-10-11T23:05:40.052Z,102845.66
2022-10-11T23:08:06.754Z,102849.88
2022-10-11T23:10:33.183Z,102859.56
2022-10-11T23:12:59.631Z,102847.50
2022-10-11T23:15:26.078Z,102857.97
2022-10-11T23:17:52.467Z,102854.56
2022-10-11T23:20:18.940Z,102855.44
2022-10-11T23:22:45.427Z,102848.47
2022-10-11T23:25:11.850Z,102841.50
2022-10-11T23:27:38.825Z,102844.25
2022-10-11T23:30:06.196Z,102852.06
2022-10-11T23:32:32.666Z,102846.03
2022-10-11T23:34:59.084Z,102854.84
2022-10-11T23:37:25.572Z,102847.09
2022-10-11T23:39:52.156Z,102840.94
2022-10-11T23:42:18.673Z,102833.34
2022-10-11T23:44:45.072Z,102848.16
2022-10-11T23:47:11.615Z,102848.25
2022-10-11T23:49:38.007Z,102856.19
2022-10-11T23:52:04.538Z,102848.44
2022-10-11T23:54:31.015Z,102855.53
2022-10-11T23:56:57.721Z,102852.03
2022-10-11T23:59:24.346Z,102848.50
